createdAt,value
2023-01-19T00:00:39.487Z,5.63
2023-01-19T00:03:06.568Z,5.96
2023-01-19T00:05:33.230Z,6.17
2023-01-19T00:08:00.094Z,5.72
2023-01-19T00:10:26.871Z,5.09
2023-01-19T00:12:53.441Z,5.03
2023-01-19T00:15:20.041Z,4.94
2023-01-19T00:17:46.692Z,5.91
2023-01-19T00:20:13.382Z,6.16
2023-01-19T00:22:39.979Z,6.31
2023-01-19T00:25:06.933Z,5.76
2023-01-19T00:27:33.627Z,5.61
2023-01-19T00:30:00.355Z,5.47
2023-01-19T00:32:26.992Z,5.32
2023-01-19T00:34:53.588Z,5.53
2023-01-19T00:37:20.199Z,5.63
2023-01-19T00:39:46.859Z,5.44
2023-01-19T00:42:14.104Z,5.18
2023-01-19T00:44:40.739Z,5.22
2023-01-19T00:47:07.372Z,4.94
2023-01-19T00:49:34.012Z,5.00
2023-01-19T00:52:00.652Z,5.02
2023-01-19T00:54:27.684Z,4.94
2023-01-19T00:56:54.344Z,4.63
2023-01-19T00:59:20.947Z,4.74
2023-01-19T01:01:47.746Z,4.40
2023-01-19T01:04:14.674Z,4.45
2023-01-19T01:06:41.283Z,4.31
2023-01-19T01:09:07.926Z,4.45
2023-01-19T01:11:34.561Z,4.04
2023-01-19T01:14:01.159Z,3.98
2023-01-19T01:16:27.841Z,3.90
2023-01-19T01:18:54.491Z,4.03
2023-01-19T01:21:21.128Z,4.01
2023-01-19T01:23:47.793Z,3.76
2023-01-19T01:26:14.420Z,3.89
2023-01-19T01:28:41.014Z,4.00
2023-01-19T01:31:07.629Z,4.03
2023-01-19T01:33:40.821Z,4.02
2023-01-19T01:36:09.711Z,3.72
2023-01-19T01:38:36.351Z,3.67
2023-01-19T01:41:02.977Z,3.48
2023-01-19T01:43:49.049Z,3.84
2023-01-19T01:46:17.608Z,3.74
2023-01-19T01:48:50.131Z,3.79
2023-01-19T01:51:33.088Z,3.42
2023-01-19T01:54:08.654Z,3.37
2023-01-19T01:56:39.836Z,3.53
2023-01-19T01:59:18.097Z,3.58
2023-01-19T02:01:44.916Z,3.56
2023-01-19T02:04:11.699Z,3.36
2023-01-19T02:06:38.745Z,3.99
2023-01-19T02:09:11.104Z,3.91
2023-01-19T02:11:38.892Z,4.18
2023-01-19T02:14:06.081Z,4.62
2023-01-19T02:16:34.418Z,4.63
2023-01-19T02:19:01.087Z,4.58
2023-01-19T02:21:47.037Z,4.69
2023-01-19T02:24:14.462Z,4.33
2023-01-19T02:26:45.756Z,4.21
2023-01-19T02:29:17.586Z,3.87
2023-01-19T02:31:45.430Z,4.03
2023-01-19T02:34:18.711Z,3.95
2023-01-19T02:37:06.858Z,3.92
2023-01-19T02:39:44.159Z,3.95
2023-01-19T02:42:17.309Z,3.93
2023-01-19T02:44:50.384Z,4.07
2023-01-19T02:47:16.983Z,3.92
2023-01-19T02:49:43.824Z,4.26
2023-01-19T02:52:18.769Z,4.11
2023-01-19T02:55:12.046Z,4.12
2023-01-19T02:58:02.989Z,4.01
2023-01-19T03:01:22.525Z,3.83
2023-01-19T03:04:17.373Z,4.03
2023-01-19T03:06:53.065Z,4.12
2023-01-19T03:09:35.304Z,4.29
2023-01-19T03:12:25.447Z,4.03
2023-01-19T03:15:00.500Z,4.29
2023-01-19T03:17:31.398Z,4.23
2023-01-19T03:19:58.199Z,4.24
2023-01-19T03:22:29.364Z,4.27
2023-01-19T03:25:00.355Z,4.12
2023-01-19T03:27:35.937Z,4.14
2023-01-19T03:30:13.708Z,4.25
2023-01-19T03:32:49.691Z,3.83
2023-01-19T03:35:21.170Z,4.06
2023-01-19T03:37:51.953Z,3.80
2023-01-19T03:40:19.018Z,3.62
2023-01-19T03:42:49.410Z,3.46
2023-01-19T03:45:18.185Z,3.32
2023-01-19T03:47:45.134Z,3.34
2023-01-19T03:50:20.859Z,3.30
2023-01-19T03:53:06.739Z,3.46
2023-01-19T03:55:34.809Z,3.47
2023-01-19T03:58:01.722Z,3.89
2023-01-19T04:00:28.567Z,3.63
2023-01-19T04:02:55.424Z,3.94
2023-01-19T04:05:22.118Z,4.40
2023-01-19T04:07:49.751Z,4.57
2023-01-19T04:10:20.860Z,4.52
2023-01-19T04:12:47.695Z,4.79
2023-01-19T04:15:15.424Z,4.84
2023-01-19T04:17:42.190Z,4.79
2023-01-19T04:20:09.785Z,4.45
2023-01-19T04:22:36.443Z,4.52
2023-01-19T04:25:03.052Z,4.46
2023-01-19T04:27:29.666Z,4.63
2023-01-19T04:29:56.273Z,5.08
2023-01-19T04:32:22.856Z,5.15
2023-01-19T04:34:49.511Z,5.00
2023-01-19T04:37:16.163Z,5.42
2023-01-19T04:39:42.836Z,5.38
2023-01-19T04:42:09.451Z,5.46
2023-01-19T04:44:36.070Z,5.55
2023-01-19T04:47:02.757Z,5.67
2023-01-19T04:49:29.450Z,5.78
2023-01-19T04:51:56.429Z,5.42
2023-01-19T04:54:23.057Z,5.91
2023-01-19T04:56:49.737Z,5.91
2023-01-19T04:59:16.385Z,5.69
2023-01-19T05:01:42.992Z,5.87
2023-01-19T05:04:09.633Z,5.90
2023-01-19T05:06:36.229Z,5.44
2023-01-19T05:09:03.839Z,5.54
2023-01-19T05:11:30.432Z,5.47
2023-01-19T05:13:58.063Z,5.65
2023-01-19T05:16:24.740Z,5.30
2023-01-19T05:18:51.368Z,5.56
2023-01-19T05:21:18.378Z,6.07
2023-01-19T05:23:45.147Z,6.28
2023-01-19T05:26:11.931Z,6.38
2023-01-19T05:28:38.633Z,6.39
2023-01-19T05:31:06.072Z,7.10
2023-01-19T05:33:32.870Z,7.58
2023-01-19T05:35:59.562Z,6.82
2023-01-19T05:38:34.705Z,6.73
2023-01-19T05:41:01.992Z,7.24
2023-01-19T05:43:28.681Z,6.82
2023-01-19T05:45:55.348Z,6.60
2023-01-19T05:48:22.374Z,6.70
2023-01-19T05:50:49.059Z,6.54
2023-01-19T05:53:16.442Z,6.55
2023-01-19T05:55:43.204Z,7.16
2023-01-19T05:58:09.972Z,6.73
2023-01-19T06:00:36.710Z,6.89
2023-01-19T06:03:03.798Z,6.96
2023-01-19T06:05:30.978Z,7.28
2023-01-19T06:07:57.708Z,7.07
2023-01-19T06:10:24.481Z,6.80
2023-01-19T06:12:51.087Z,7.31
2023-01-19T06:15:18.058Z,9.78
2023-01-19T06:17:44.672Z,13.43
2023-01-19T06:20:11.727Z,12.70
2023-01-19T06:22:38.320Z,12.24
2023-01-19T06:25:05.176Z,17.25
2023-01-19T06:27:31.901Z,21.47
2023-01-19T06:29:58.533Z,18.15
2023-01-19T06:32:25.224Z,18.29
2023-01-19T06:34:53.977Z,15.69
2023-01-19T06:37:20.773Z,12.58
2023-01-19T06:39:47.388Z,11.22
2023-01-19T06:42:14.078Z,8.77
2023-01-19T06:44:40.714Z,8.14
2023-01-19T06:47:15.616Z,6.59
2023-01-19T06:49:43.135Z,6.12
2023-01-19T06:52:11.009Z,5.73
2023-01-19T06:54:38.077Z,6.03
2023-01-19T06:57:04.891Z,6.00
2023-01-19T06:59:31.904Z,6.06
2023-01-19T07:01:58.677Z,6.12
2023-01-19T07:04:25.440Z,6.39
2023-01-19T07:06:52.071Z,6.19
2023-01-19T07:09:18.785Z,6.23
2023-01-19T07:11:45.422Z,6.22
2023-01-19T07:14:12.107Z,6.69
2023-01-19T07:16:38.885Z,7.00
2023-01-19T07:19:05.787Z,6.94
2023-01-19T07:21:32.371Z,6.70
2023-01-19T07:23:58.973Z,6.51
2023-01-19T07:26:25.697Z,6.27
2023-01-19T07:28:52.618Z,6.24
2023-01-19T07:31:21.416Z,6.61
2023-01-19T07:33:48.211Z,6.63
2023-01-19T07:36:14.816Z,7.17
2023-01-19T07:38:41.511Z,6.87
2023-01-19T07:41:10.048Z,7.15
2023-01-19T07:43:36.743Z,6.34
2023-01-19T07:46:05.530Z,6.58
2023-01-19T07:48:32.267Z,6.51
2023-01-19T07:51:03.827Z,6.49
2023-01-19T07:53:30.464Z,6.23
2023-01-19T07:55:57.287Z,6.54
2023-01-19T07:58:24.669Z,6.79
2023-01-19T08:00:51.350Z,6.97
2023-01-19T08:03:18.144Z,7.20
2023-01-19T08:05:45.547Z,7.23
2023-01-19T08:08:12.271Z,8.00
2023-01-19T08:10:39.028Z,7.97
2023-01-19T08:13:05.656Z,7.50
2023-01-19T08:15:32.292Z,7.52
2023-01-19T08:18:03.834Z,7.39
2023-01-19T08:20:30.516Z,6.81
2023-01-19T08:22:57.152Z,6.84
2023-01-19T08:25:23.792Z,7.22
2023-01-19T08:27:54.849Z,7.36
2023-01-19T08:30:21.485Z,7.73
2023-01-19T08:32:48.078Z,7.33
2023-01-19T08:35:14.727Z,7.39
2023-01-19T08:37:41.352Z,7.66
2023-01-19T08:40:08.841Z,7.74
2023-01-19T08:42:35.480Z,7.72
2023-01-19T08:45:02.138Z,8.05
2023-01-19T08:47:29.713Z,8.32
2023-01-19T08:49:56.366Z,7.84
2023-01-19T08:52:22.975Z,8.02
2023-01-19T08:54:49.611Z,7.67
2023-01-19T08:57:16.265Z,7.63
2023-01-19T08:59:42.857Z,7.58
2023-01-19T09:02:10.880Z,7.84
2023-01-19T09:04:37.569Z,8.30
2023-01-19T09:09:35.677Z,7.75
2023-01-19T09:12:02.396Z,7.54
2023-01-19T09:14:29.047Z,7.73
2023-01-19T09:16:55.740Z,7.14
2023-01-19T09:19:22.384Z,7.40
2023-01-19T09:21:49.229Z,7.04
2023-01-19T09:24:15.887Z,6.97
2023-01-19T09:26:42.572Z,6.63
2023-01-19T09:29:09.211Z,6.86
2023-01-19T09:31:35.899Z,6.86
2023-01-19T09:34:02.599Z,6.71
2023-01-19T09:36:29.268Z,7.21
2023-01-19T09:38:58.865Z,7.10
2023-01-19T09:41:26.515Z,6.97
2023-01-19T09:43:59.463Z,6.55
2023-01-19T09:46:37.430Z,6.10
2023-01-19T09:49:16.705Z,6.10
2023-01-19T09:51:51.281Z,5.98
2023-01-19T09:54:29.133Z,6.37
2023-01-19T09:56:55.773Z,5.70
2023-01-19T09:59:33.652Z,7.07
2023-01-19T10:02:18.289Z,7.77
2023-01-19T10:05:01.108Z,7.50
2023-01-19T10:07:36.789Z,6.74
2023-01-19T10:10:28.887Z,7.68
2023-01-19T10:13:03.166Z,8.07
2023-01-19T10:15:54.574Z,8.17
2023-01-19T10:18:37.403Z,7.86
2023-01-19T10:21:31.437Z,7.48
2023-01-19T10:24:23.481Z,7.51
2023-01-19T10:26:53.262Z,7.18
2023-01-19T10:29:31.133Z,7.25
2023-01-19T10:32:29.598Z,7.17
2023-01-19T10:34:56.340Z,7.04
2023-01-19T10:37:32.652Z,7.29
2023-01-19T10:40:09.090Z,7.17
2023-01-19T10:42:37.397Z,7.05
2023-01-19T10:45:14.489Z,7.04
2023-01-19T10:47:43.875Z,6.72
2023-01-19T10:50:32.536Z,6.87
2023-01-19T10:53:02.683Z,6.69
2023-01-19T10:55:36.047Z,6.40
2023-01-19T10:58:02.707Z,6.55
2023-01-19T11:00:29.451Z,6.70
2023-01-19T11:02:56.143Z,6.65
2023-01-19T11:05:26.683Z,6.70
2023-01-19T11:07:53.644Z,6.56
2023-01-19T11:10:24.473Z,6.35
2023-01-19T11:13:28.423Z,6.64
2023-01-19T11:15:59.337Z,6.56
2023-01-19T11:18:34.131Z,6.68
2023-01-19T11:21:08.089Z,6.87
2023-01-19T11:23:39.830Z,6.62
2023-01-19T11:26:06.568Z,6.72
2023-01-19T11:28:44.840Z,7.06
2023-01-19T11:31:14.432Z,7.18
2023-01-19T11:33:42.439Z,7.09
2023-01-19T11:36:29.444Z,6.99
2023-01-19T11:38:59.212Z,6.62
2023-01-19T11:41:36.997Z,6.82
2023-01-19T11:44:22.502Z,6.57
2023-01-19T11:46:56.434Z,6.72
2023-01-19T11:49:51.855Z,6.22
2023-01-19T11:52:35.986Z,6.80
2023-01-19T11:55:05.342Z,6.75
2023-01-19T11:57:32.147Z,6.67
2023-01-19T12:00:04.484Z,7.28
2023-01-19T12:02:45.659Z,7.10
2023-01-19T12:05:16.724Z,7.02
2023-01-19T12:07:47.643Z,7.04
2023-01-19T12:10:23.384Z,6.90
2023-01-19T12:12:52.638Z,6.62
2023-01-19T12:15:41.903Z,6.87
2023-01-19T12:18:21.639Z,6.88
2023-01-19T12:20:56.359Z,6.49
2023-01-19T12:23:34.374Z,6.40
2023-01-19T12:26:16.156Z,6.54
2023-01-19T12:28:47.306Z,6.39
2023-01-19T12:31:20.285Z,5.87
2023-01-19T12:33:48.058Z,5.81
2023-01-19T12:36:26.605Z,5.96
2023-01-19T12:39:01.447Z,5.65
2023-01-19T12:41:37.783Z,5.89
2023-01-19T12:44:10.197Z,5.87
2023-01-19T12:46:50.637Z,5.63
2023-01-19T12:49:32.638Z,5.71
2023-01-19T12:52:20.372Z,5.25
2023-01-19T12:54:58.793Z,5.64
2023-01-19T12:57:37.851Z,5.59
2023-01-19T13:00:24.432Z,5.94
2023-01-19T13:03:24.374Z,6.95
2023-01-19T13:05:54.181Z,5.51
2023-01-19T13:08:26.309Z,5.96
2023-01-19T13:11:00.529Z,5.82
2023-01-19T13:13:30.885Z,5.76
2023-01-19T13:16:20.606Z,6.20
2023-01-19T13:18:58.903Z,7.16
2023-01-19T13:21:31.561Z,8.09
2023-01-19T13:24:01.420Z,6.07
2023-01-19T13:26:40.076Z,5.44
2023-01-19T13:29:13.919Z,5.37
2023-01-19T13:31:43.669Z,5.47
2023-01-19T13:34:16.987Z,5.57
2023-01-19T13:36:51.954Z,5.31
2023-01-19T13:39:44.563Z,5.15
2023-01-19T13:42:20.993Z,5.16
2023-01-19T13:44:52.922Z,5.28
2023-01-19T13:47:25.090Z,4.53
2023-01-19T13:49:56.816Z,4.87
2023-01-19T13:52:28.864Z,4.90
2023-01-19T13:55:01.298Z,4.93
2023-01-19T13:57:31.957Z,4.83
2023-01-19T14:00:22.013Z,5.13
2023-01-19T14:03:13.310Z,4.84
2023-01-19T14:05:42.897Z,4.98
2023-01-19T14:08:09.536Z,4.94
2023-01-19T14:10:38.149Z,5.37
2023-01-19T14:13:17.011Z,5.16
2023-01-19T14:15:45.440Z,5.00
2023-01-19T14:18:25.189Z,5.27
2023-01-19T14:21:07.471Z,5.33
2023-01-19T14:24:12.595Z,5.48
2023-01-19T14:26:53.908Z,5.30
2023-01-19T14:29:29.513Z,5.54
2023-01-19T14:32:02.303Z,5.30
2023-01-19T14:34:50.089Z,5.05
2023-01-19T14:37:27.374Z,5.03
2023-01-19T14:40:02.960Z,4.50
2023-01-19T14:42:37.029Z,4.62
2023-01-19T14:45:16.633Z,4.47
2023-01-19T14:47:45.928Z,4.71
2023-01-19T14:50:26.363Z,4.83
2023-01-19T14:52:55.841Z,4.52
2023-01-19T14:55:32.152Z,4.82
2023-01-19T14:57:58.867Z,5.16
2023-01-19T15:00:25.673Z,5.57
2023-01-19T15:02:52.339Z,5.44
2023-01-19T15:05:19.979Z,5.53
2023-01-19T15:07:46.920Z,5.29
2023-01-19T15:10:23.475Z,5.38
2023-01-19T15:12:52.531Z,5.77
2023-01-19T15:15:33.872Z,5.19
2023-01-19T15:18:04.341Z,5.23
2023-01-19T15:20:31.085Z,5.29
2023-01-19T15:22:57.723Z,5.19
2023-01-19T15:25:24.716Z,5.24
2023-01-19T15:27:52.137Z,4.90
2023-01-19T15:30:26.171Z,5.39
2023-01-19T15:32:52.783Z,5.15
2023-01-19T15:35:21.967Z,5.38
2023-01-19T15:37:49.897Z,5.40
2023-01-19T15:40:18.850Z,5.45
2023-01-19T15:42:45.684Z,5.52
2023-01-19T15:45:36.814Z,5.70
2023-01-19T15:48:11.082Z,5.62
2023-01-19T15:50:43.359Z,5.76
2023-01-19T15:53:19.276Z,5.48
2023-01-19T15:55:53.915Z,5.45
2023-01-19T15:58:20.694Z,5.75
2023-01-19T16:00:54.119Z,5.68
2023-01-19T16:03:20.855Z,5.56
2023-01-19T16:05:47.533Z,5.49
2023-01-19T16:08:14.291Z,5.36
2023-01-19T16:10:41.868Z,5.44
2023-01-19T16:13:10.811Z,5.54
2023-01-19T16:15:39.238Z,6.74
2023-01-19T16:18:06.227Z,6.67
2023-01-19T16:20:32.838Z,6.61
2023-01-19T16:23:13.545Z,6.77
2023-01-19T16:25:41.323Z,7.84
2023-01-19T16:28:07.987Z,9.08
2023-01-19T16:30:35.802Z,9.50
2023-01-19T16:33:02.450Z,10.06
2023-01-19T16:35:29.045Z,9.94
2023-01-19T16:37:55.644Z,10.03
2023-01-19T16:40:22.260Z,10.19
2023-01-19T16:42:48.879Z,10.53
2023-01-19T16:45:15.596Z,10.54
2023-01-19T16:47:42.206Z,10.79
2023-01-19T16:50:11.709Z,10.08
2023-01-19T16:52:38.708Z,9.94
2023-01-19T16:55:06.231Z,11.14
2023-01-19T16:57:32.904Z,11.80
2023-01-19T16:59:59.576Z,12.46
2023-01-19T17:02:26.202Z,10.79
2023-01-19T17:04:52.906Z,10.11
2023-01-19T17:07:19.574Z,9.22
2023-01-19T17:09:46.155Z,10.84
2023-01-19T17:12:12.807Z,14.29
2023-01-19T17:14:39.539Z,12.54
2023-01-19T17:17:06.191Z,11.46
2023-01-19T17:19:32.820Z,11.79
2023-01-19T17:21:59.418Z,12.40
2023-01-19T17:24:26.043Z,11.87
2023-01-19T17:26:52.691Z,10.86
2023-01-19T17:29:19.339Z,10.66
2023-01-19T17:31:46.081Z,11.03
2023-01-19T17:34:12.864Z,11.28
2023-01-19T17:36:39.490Z,10.99
2023-01-19T17:39:08.613Z,11.21
2023-01-19T17:41:36.052Z,11.55
2023-01-19T17:44:05.686Z,11.25
2023-01-19T17:46:36.437Z,12.33
2023-01-19T17:49:05.816Z,12.41
2023-01-19T17:51:33.606Z,11.73
2023-01-19T17:54:00.686Z,14.85
2023-01-19T17:56:30.111Z,15.26
2023-01-19T17:58:58.209Z,13.43
2023-01-19T18:01:28.198Z,12.39
2023-01-19T18:03:55.123Z,12.58
2023-01-19T18:06:22.283Z,13.06
2023-01-19T18:08:49.986Z,12.76
2023-01-19T18:11:19.098Z,14.97
2023-01-19T18:13:48.176Z,18.61
2023-01-19T18:16:21.498Z,15.26
2023-01-19T18:18:48.307Z,17.15
2023-01-19T18:21:16.448Z,18.34
2023-01-19T18:23:43.131Z,20.02
2023-01-19T18:26:18.590Z,30.13
2023-01-19T18:28:45.528Z,29.42
2023-01-19T18:31:15.460Z,20.49
2023-01-19T18:33:42.594Z,18.87
2023-01-19T18:36:10.403Z,18.43
2023-01-19T18:38:38.821Z,32.49
2023-01-19T18:41:12.547Z,25.25
2023-01-19T18:43:40.047Z,22.18
2023-01-19T18:46:07.054Z,22.14
2023-01-19T18:48:34.262Z,17.59
2023-01-19T18:51:05.951Z,19.32
2023-01-19T18:53:32.656Z,19.78
2023-01-19T18:56:01.513Z,16.58
2023-01-19T18:58:29.465Z,20.30
2023-01-19T19:00:56.581Z,23.60
2023-01-19T19:03:24.141Z,21.75
2023-01-19T19:05:50.856Z,19.42
2023-01-19T19:08:18.166Z,16.90
2023-01-19T19:10:45.114Z,14.99
2023-01-19T19:13:13.643Z,13.58
2023-01-19T19:15:40.472Z,13.39
2023-01-19T19:18:07.320Z,12.83
2023-01-19T19:20:33.989Z,13.37
2023-01-19T19:23:00.615Z,12.71
2023-01-19T19:25:27.229Z,16.26
2023-01-19T19:27:53.869Z,17.04
2023-01-19T19:30:20.883Z,13.74
2023-01-19T19:32:54.675Z,12.55
2023-01-19T19:35:21.709Z,14.95
2023-01-19T19:37:48.998Z,15.44
2023-01-19T19:40:16.341Z,15.56
2023-01-19T19:42:43.119Z,12.64
2023-01-19T19:45:11.166Z,13.15
2023-01-19T19:47:37.799Z,15.98
2023-01-19T19:50:04.784Z,11.50
2023-01-19T19:52:31.438Z,9.17
2023-01-19T19:54:58.112Z,8.76
2023-01-19T19:57:25.088Z,9.71
2023-01-19T19:59:52.173Z,9.78
2023-01-19T20:02:18.861Z,10.60
2023-01-19T20:04:45.648Z,11.15
2023-01-19T20:07:12.337Z,10.26
2023-01-19T20:09:38.957Z,15.59
2023-01-19T20:12:05.973Z,10.79
2023-01-19T20:14:32.563Z,9.30
2023-01-19T20:16:59.305Z,9.84
2023-01-19T20:19:25.935Z,9.66
2023-01-19T20:21:52.601Z,10.47
2023-01-19T20:24:20.537Z,7.99
2023-01-19T20:26:50.604Z,14.03
2023-01-19T20:29:21.442Z,12.12
2023-01-19T20:31:52.368Z,10.92
2023-01-19T20:34:21.928Z,9.90
2023-01-19T20:36:48.903Z,10.41
2023-01-19T20:39:17.872Z,13.37
2023-01-19T20:41:44.573Z,13.60
2023-01-19T20:44:24.173Z,13.97
2023-01-19T20:46:51.923Z,22.69
2023-01-19T20:49:18.676Z,17.63
2023-01-19T20:51:45.705Z,35.02
2023-01-19T20:54:15.887Z,15.22
2023-01-19T20:56:42.636Z,10.77
2023-01-19T20:59:10.558Z,9.38
2023-01-19T21:01:38.397Z,10.11
2023-01-19T21:04:05.316Z,8.58
2023-01-19T21:06:32.393Z,7.41
2023-01-19T21:08:59.049Z,7.00
2023-01-19T21:11:25.740Z,6.41
2023-01-19T21:13:52.811Z,7.71
2023-01-19T21:16:19.433Z,6.00
2023-01-19T21:18:46.067Z,5.33
2023-01-19T21:21:24.594Z,5.81
2023-01-19T21:23:58.381Z,6.06
2023-01-19T21:26:25.124Z,6.65
2023-01-19T21:28:51.789Z,5.63
2023-01-19T21:31:18.521Z,6.62
2023-01-19T21:33:45.369Z,7.56
2023-01-19T21:36:12.132Z,5.44
2023-01-19T21:38:39.393Z,5.11
2023-01-19T21:41:11.554Z,4.98
2023-01-19T21:43:40.112Z,5.62
2023-01-19T21:46:17.598Z,6.83
2023-01-19T21:48:44.512Z,6.50
2023-01-19T21:51:12.005Z,7.16
2023-01-19T21:53:39.010Z,7.07
2023-01-19T21:56:10.632Z,6.78
2023-01-19T21:58:37.836Z,8.04
2023-01-19T22:01:07.952Z,8.47
2023-01-19T22:03:34.675Z,7.49
2023-01-19T22:06:06.426Z,7.07
2023-01-19T22:08:33.451Z,7.85
2023-01-19T22:11:09.646Z,7.74
2023-01-19T22:13:37.699Z,7.11
2023-01-19T22:16:10.451Z,6.76
2023-01-19T22:18:39.549Z,5.74
2023-01-19T22:21:09.207Z,7.17
2023-01-19T22:23:36.844Z,6.47
2023-01-19T22:26:05.035Z,7.13
2023-01-19T22:28:32.213Z,7.39
2023-01-19T22:31:07.345Z,8.69
2023-01-19T22:33:34.184Z,8.26
2023-01-19T22:36:16.374Z,8.55
2023-01-19T22:38:44.355Z,8.17
2023-01-19T22:41:15.839Z,8.00
2023-01-19T22:43:43.604Z,7.70
2023-01-19T22:46:10.336Z,7.90
2023-01-19T22:48:36.978Z,7.49
2023-01-19T22:51:04.189Z,7.51
2023-01-19T22:53:32.117Z,7.23
2023-01-19T22:55:58.763Z,7.95
2023-01-19T22:58:25.361Z,8.22
2023-01-19T23:00:52.127Z,8.36
2023-01-19T23:03:18.792Z,8.72
2023-01-19T23:05:45.400Z,8.73
2023-01-19T23:08:11.978Z,8.83
2023-01-19T23:10:39.043Z,9.32
2023-01-19T23:13:05.643Z,9.33
2023-01-19T23:15:33.381Z,9.38
2023-01-19T23:18:00.060Z,8.92
2023-01-19T23:20:26.674Z,9.17
2023-01-19T23:22:53.351Z,9.26
2023-01-19T23:25:20.050Z,9.22
2023-01-19T23:27:46.718Z,9.19
2023-01-19T23:30:13.835Z,8.99
2023-01-19T23:32:40.464Z,8.81
2023-01-19T23:35:07.415Z,8.87
2023-01-19T23:37:34.252Z,8.89
2023-01-19T23:40:00.889Z,9.41
2023-01-19T23:42:27.605Z,8.77
2023-01-19T23:44:54.271Z,8.70
2023-01-19T23:47:21.086Z,9.02
2023-01-19T23:49:47.723Z,9.05
2023-01-19T23:52:14.414Z,8.70
2023-01-19T23:54:41.148Z,8.73
2023-01-19T23:57:07.896Z,8.65
2023-01-19T23:59:34.499Z,8.81
